Terminal Aerodrome Forecast
Issued by NWS

Home | Current Version | Previous Version | Text Only | Print | Product List | Glossary Off
Versions: 1 2 3 4 5 6 7 8 9 10 11 12 13 14 15 16 17 18 19 20 21 22

000
FTUS43 KUNR 201133
TAFGCC
TAF
KGCC 201133Z 2012/2112 14005KT P6SM SCT010 BKN080
      TEMPO 2012/2014 BKN010
     FM202000 13008KT P6SM SCT060=

USA.gov is the U.S. government's official web portal to all federal, state and local government web resources and services.